sensor_id;sensor_type;location;lat;lon;timestamp;P1;durP1;ratioP1;P2;durP2;ratioP2
23990;SDS011;12205;50.600;4.608;2023-04-05T00:02:10;12.63;;;3.55;;
23990;SDS011;12205;50.600;4.608;2023-04-05T00:04:38;13.82;;;3.53;;
23990;SDS011;12205;50.600;4.608;2023-04-05T00:07:16;9.20;;;2.80;;
23990;SDS011;12205;50.600;4.608;2023-04-05T00:09:47;11.35;;;3.22;;
23990;SDS011;12205;50.600;4.608;2023-04-05T00:12:14;8.63;;;3.10;;
23990;SDS011;12205;50.600;4.608;2023-04-05T00:14:41;20.52;;;4.15;;
23990;SDS011;12205;50.600;4.608;2023-04-05T00:17:08;8.20;;;3.00;;
23990;SDS011;12205;50.600;4.608;2023-04-05T00:19:36;15.25;;;3.92;;
23990;SDS011;12205;50.600;4.608;2023-04-05T00:22:04;12.18;;;3.35;;
23990;SDS011;12205;50.600;4.608;2023-04-05T00:24:34;11.82;;;3.03;;
23990;SDS011;12205;50.600;4.608;2023-04-05T00:27:08;8.90;;;2.92;;
23990;SDS011;12205;50.600;4.608;2023-04-05T00:29:35;7.05;;;2.53;;
23990;SDS011;12205;50.600;4.608;2023-04-05T00:32:03;9.93;;;3.30;;
23990;SDS011;12205;50.600;4.608;2023-04-05T00:34:30;8.63;;;2.88;;
23990;SDS011;12205;50.600;4.608;2023-04-05T00:36:58;9.27;;;2.92;;
23990;SDS011;12205;50.600;4.608;2023-04-05T00:39:25;9.68;;;2.53;;
23990;SDS011;12205;50.600;4.608;2023-04-05T00:41:52;9.35;;;3.03;;
23990;SDS011;12205;50.600;4.608;2023-04-05T00:44:21;12.18;;;3.30;;
23990;SDS011;12205;50.600;4.608;2023-04-05T00:46:48;15.27;;;4.43;;
23990;SDS011;12205;50.600;4.608;2023-04-05T00:49:16;14.60;;;3.55;;
23990;SDS011;12205;50.600;4.608;2023-04-05T00:51:43;8.85;;;3.00;;
23990;SDS011;12205;50.600;4.608;2023-04-05T00:54:11;12.20;;;3.13;;
23990;SDS011;12205;50.600;4.608;2023-04-05T00:56:40;10.05;;;3.22;;
23990;SDS011;12205;50.600;4.608;2023-04-05T00:59:07;17.05;;;4.28;;
23990;SDS011;12205;50.600;4.608;2023-04-05T01:01:36;11.23;;;3.03;;
23990;SDS011;12205;50.600;4.608;2023-04-05T01:04:06;7.60;;;2.60;;
23990;SDS011;12205;50.600;4.608;2023-04-05T01:06:39;9.43;;;3.08;;
23990;SDS011;12205;50.600;4.608;2023-04-05T01:09:28;9.05;;;2.92;;
23990;SDS011;12205;50.600;4.608;2023-04-05T01:12:08;13.63;;;3.45;;
23990;SDS011;12205;50.600;4.608;2023-04-05T01:14:44;7.47;;;2.45;;
23990;SDS011;12205;50.600;4.608;2023-04-05T01:17:16;13.30;;;3.42;;
23990;SDS011;12205;50.600;4.608;2023-04-05T01:19:46;11.02;;;3.25;;
23990;SDS011;12205;50.600;4.608;2023-04-05T01:28:54;8.02;;;2.80;;
23990;SDS011;12205;50.600;4.608;2023-04-05T01:31:57;7.88;;;2.80;;
23990;SDS011;12205;50.600;4.608;2023-04-05T01:34:32;10.70;;;3.20;;
23990;SDS011;12205;50.600;4.608;2023-04-05T01:37:41;11.30;;;3.50;;
23990;SDS011;12205;50.600;4.608;2023-04-05T01:40:15;8.90;;;2.85;;
23990;SDS011;12205;50.600;4.608;2023-04-05T01:42:43;9.60;;;3.15;;
23990;SDS011;12205;50.600;4.608;2023-04-05T01:45:11;8.45;;;3.00;;
23990;SDS011;12205;50.600;4.608;2023-04-05T01:47:40;9.77;;;3.55;;
23990;SDS011;12205;50.600;4.608;2023-04-05T01:50:07;14.10;;;4.13;;
23990;SDS011;12205;50.600;4.608;2023-04-05T01:52:35;26.60;;;5.47;;
23990;SDS011;12205;50.600;4.608;2023-04-05T01:55:02;17.08;;;4.07;;
23990;SDS011;12205;50.600;4.608;2023-04-05T01:57:30;11.55;;;3.13;;
23990;SDS011;12205;50.600;4.608;2023-04-05T01:59:57;10.52;;;3.30;;
23990;SDS011;12205;50.600;4.608;2023-04-05T02:02:25;8.93;;;3.00;;
23990;SDS011;12205;50.600;4.608;2023-04-05T02:04:54;12.82;;;3.42;;
23990;SDS011;12205;50.600;4.608;2023-04-05T02:07:21;7.65;;;3.10;;
23990;SDS011;12205;50.600;4.608;2023-04-05T02:09:49;12.20;;;3.40;;
23990;SDS011;12205;50.600;4.608;2023-04-05T02:12:16;7.90;;;2.78;;
23990;SDS011;12205;50.600;4.608;2023-04-05T02:14:44;8.98;;;3.38;;
23990;SDS011;12205;50.600;4.608;2023-04-05T02:17:11;9.32;;;3.08;;
23990;SDS011;12205;50.600;4.608;2023-04-05T02:19:38;9.35;;;3.08;;
23990;SDS011;12205;50.600;4.608;2023-04-05T02:22:07;14.38;;;3.80;;
23990;SDS011;12205;50.600;4.608;2023-04-05T02:24:34;8.10;;;3.00;;
23990;SDS011;12205;50.600;4.608;2023-04-05T02:27:02;9.25;;;3.42;;
23990;SDS011;12205;50.600;4.608;2023-04-05T02:29:31;11.70;;;3.60;;
23990;SDS011;12205;50.600;4.608;2023-04-05T02:31:58;13.57;;;3.65;;
23990;SDS011;12205;50.600;4.608;2023-04-05T02:34:26;10.30;;;3.38;;
23990;SDS011;12205;50.600;4.608;2023-04-05T02:36:56;16.80;;;5.37;;
23990;SDS011;12205;50.600;4.608;2023-04-05T02:39:25;17.10;;;4.32;;
23990;SDS011;12205;50.600;4.608;2023-04-05T02:41:53;10.77;;;3.05;;
23990;SDS011;12205;50.600;4.608;2023-04-05T02:44:20;10.57;;;3.30;;
23990;SDS011;12205;50.600;4.608;2023-04-05T02:46:51;12.30;;;3.30;;
23990;SDS011;12205;50.600;4.608;2023-04-05T02:49:24;9.85;;;3.47;;
23990;SDS011;12205;50.600;4.608;2023-04-05T02:51:53;9.75;;;3.13;;
23990;SDS011;12205;50.600;4.608;2023-04-05T02:54:21;12.85;;;4.20;;
23990;SDS011;12205;50.600;4.608;2023-04-05T02:56:51;7.70;;;3.00;;
23990;SDS011;12205;50.600;4.608;2023-04-05T02:59:20;12.27;;;3.80;;
23990;SDS011;12205;50.600;4.608;2023-04-05T03:01:47;15.38;;;4.05;;
23990;SDS011;12205;50.600;4.608;2023-04-05T03:04:21;18.58;;;4.53;;
23990;SDS011;12205;50.600;4.608;2023-04-05T03:06:53;17.25;;;4.70;;
23990;SDS011;12205;50.600;4.608;2023-04-05T03:09:21;17.77;;;3.88;;
23990;SDS011;12205;50.600;4.608;2023-04-05T03:11:56;11.75;;;3.50;;
23990;SDS011;12205;50.600;4.608;2023-04-05T03:14:23;9.18;;;3.40;;
23990;SDS011;12205;50.600;4.608;2023-04-05T03:16:50;14.43;;;3.88;;
23990;SDS011;12205;50.600;4.608;2023-04-05T03:19:26;12.13;;;3.50;;
23990;SDS011;12205;50.600;4.608;2023-04-05T03:22:00;13.95;;;4.00;;
23990;SDS011;12205;50.600;4.608;2023-04-05T03:24:32;12.15;;;3.85;;
23990;SDS011;12205;50.600;4.608;2023-04-05T03:27:02;12.27;;;3.67;;
23990;SDS011;12205;50.600;4.608;2023-04-05T03:29:37;8.40;;;3.17;;
23990;SDS011;12205;50.600;4.608;2023-04-05T03:32:10;15.57;;;4.40;;
23990;SDS011;12205;50.600;4.608;2023-04-05T03:34:44;12.10;;;4.00;;
23990;SDS011;12205;50.600;4.608;2023-04-05T03:37:13;19.65;;;5.28;;
23990;SDS011;12205;50.600;4.608;2023-04-05T03:39:46;13.55;;;4.25;;
23990;SDS011;12205;50.600;4.608;2023-04-05T03:42:16;17.45;;;4.70;;
23990;SDS011;12205;50.600;4.608;2023-04-05T03:44:43;14.68;;;4.53;;
23990;SDS011;12205;50.600;4.608;2023-04-05T03:47:11;14.88;;;4.75;;
23990;SDS011;12205;50.600;4.608;2023-04-05T03:49:40;14.65;;;4.10;;
23990;SDS011;12205;50.600;4.608;2023-04-05T03:52:08;15.23;;;3.92;;
23990;SDS011;12205;50.600;4.608;2023-04-05T03:54:41;10.65;;;3.90;;
23990;SDS011;12205;50.600;4.608;2023-04-05T03:57:09;14.38;;;3.92;;
23990;SDS011;12205;50.600;4.608;2023-04-05T03:59:39;21.95;;;6.55;;
23990;SDS011;12205;50.600;4.608;2023-04-05T04:02:07;25.27;;;6.72;;
23990;SDS011;12205;50.600;4.608;2023-04-05T04:04:34;20.90;;;6.40;;
23990;SDS011;12205;50.600;4.608;2023-04-05T04:07:01;17.73;;;4.82;;
23990;SDS011;12205;50.600;4.608;2023-04-05T04:09:29;14.07;;;4.03;;
23990;SDS011;12205;50.600;4.608;2023-04-05T04:12:03;10.93;;;3.60;;
23990;SDS011;12205;50.600;4.608;2023-04-05T04:14:33;13.13;;;4.10;;
23990;SDS011;12205;50.600;4.608;2023-04-05T04:17:28;7.17;;;2.90;;
23990;SDS011;12205;50.600;4.608;2023-04-05T04:20:24;14.07;;;4.15;;
23990;SDS011;12205;50.600;4.608;2023-04-05T04:23:17;16.73;;;4.95;;
23990;SDS011;12205;50.600;4.608;2023-04-05T04:26:03;10.55;;;3.70;;
23990;SDS011;12205;50.600;4.608;2023-04-05T04:28:56;10.60;;;3.78;;
23990;SDS011;12205;50.600;4.608;2023-04-05T04:31:45;13.57;;;4.30;;
23990;SDS011;12205;50.600;4.608;2023-04-05T04:34:31;9.77;;;3.53;;
23990;SDS011;12205;50.600;4.608;2023-04-05T04:37:13;11.32;;;3.65;;
23990;SDS011;12205;50.600;4.608;2023-04-05T04:39:43;16.45;;;5.03;;
23990;SDS011;12205;50.600;4.608;2023-04-05T04:42:30;10.02;;;3.67;;
23990;SDS011;12205;50.600;4.608;2023-04-05T04:45:32;19.13;;;4.78;;
23990;SDS011;12205;50.600;4.608;2023-04-05T04:48:17;11.07;;;3.97;;
23990;SDS011;12205;50.600;4.608;2023-04-05T04:50:53;15.23;;;4.75;;
23990;SDS011;12205;50.600;4.608;2023-04-05T04:53:22;11.35;;;4.13;;
23990;SDS011;12205;50.600;4.608;2023-04-05T04:55:49;9.95;;;3.50;;
23990;SDS011;12205;50.600;4.608;2023-04-05T04:58:16;11.40;;;4.22;;
23990;SDS011;12205;50.600;4.608;2023-04-05T05:00:48;14.25;;;4.68;;
23990;SDS011;12205;50.600;4.608;2023-04-05T05:03:17;15.65;;;4.63;;
23990;SDS011;12205;50.600;4.608;2023-04-05T05:05:47;14.05;;;4.55;;
23990;SDS011;12205;50.600;4.608;2023-04-05T05:08:23;14.77;;;4.70;;
23990;SDS011;12205;50.600;4.608;2023-04-05T05:10:50;15.82;;;6.05;;
23990;SDS011;12205;50.600;4.608;2023-04-05T05:13:17;20.10;;;5.20;;
23990;SDS011;12205;50.600;4.608;2023-04-05T05:15:44;11.48;;;4.18;;
23990;SDS011;12205;50.600;4.608;2023-04-05T05:18:12;17.85;;;5.07;;
23990;SDS011;12205;50.600;4.608;2023-04-05T05:20:40;16.58;;;4.68;;
23990;SDS011;12205;50.600;4.608;2023-04-05T05:23:07;15.88;;;4.85;;
23990;SDS011;12205;50.600;4.608;2023-04-05T05:25:36;15.52;;;4.85;;
23990;SDS011;12205;50.600;4.608;2023-04-05T05:28:03;17.17;;;4.68;;
23990;SDS011;12205;50.600;4.608;2023-04-05T05:30:30;10.10;;;3.72;;
23990;SDS011;12205;50.600;4.608;2023-04-05T05:32:57;16.02;;;5.90;;
23990;SDS011;12205;50.600;4.608;2023-04-05T05:35:25;22.25;;;5.22;;
23990;SDS011;12205;50.600;4.608;2023-04-05T05:37:54;16.40;;;4.95;;
23990;SDS011;12205;50.600;4.608;2023-04-05T05:40:22;14.85;;;4.72;;
23990;SDS011;12205;50.600;4.608;2023-04-05T05:42:52;32.70;;;9.57;;
23990;SDS011;12205;50.600;4.608;2023-04-05T05:45:19;23.85;;;7.43;;
23990;SDS011;12205;50.600;4.608;2023-04-05T05:47:46;22.55;;;5.70;;
23990;SDS011;12205;50.600;4.608;2023-04-05T05:50:13;23.40;;;6.25;;
23990;SDS011;12205;50.600;4.608;2023-04-05T05:52:41;16.48;;;5.50;;
23990;SDS011;12205;50.600;4.608;2023-04-05T05:55:08;17.77;;;5.97;;
23990;SDS011;12205;50.600;4.608;2023-04-05T05:57:35;22.40;;;6.47;;
23990;SDS011;12205;50.600;4.608;2023-04-05T06:00:05;14.68;;;4.78;;
23990;SDS011;12205;50.600;4.608;2023-04-05T06:02:36;19.15;;;5.53;;
23990;SDS011;12205;50.600;4.608;2023-04-05T06:05:04;13.23;;;4.65;;
23990;SDS011;12205;50.600;4.608;2023-04-05T06:07:34;19.67;;;5.13;;
23990;SDS011;12205;50.600;4.608;2023-04-05T06:10:02;17.60;;;4.88;;
23990;SDS011;12205;50.600;4.608;2023-04-05T06:12:30;13.38;;;5.05;;
23990;SDS011;12205;50.600;4.608;2023-04-05T06:14:57;16.98;;;5.20;;
23990;SDS011;12205;50.600;4.608;2023-04-05T06:17:28;14.48;;;5.55;;
23990;SDS011;12205;50.600;4.608;2023-04-05T06:19:55;22.13;;;5.68;;
23990;SDS011;12205;50.600;4.608;2023-04-05T06:22:22;20.40;;;6.43;;
23990;SDS011;12205;50.600;4.608;2023-04-05T06:24:49;17.45;;;5.25;;
23990;SDS011;12205;50.600;4.608;2023-04-05T06:27:16;16.35;;;4.80;;
23990;SDS011;12205;50.600;4.608;2023-04-05T06:29:43;16.38;;;5.07;;
23990;SDS011;12205;50.600;4.608;2023-04-05T06:32:10;20.92;;;5.53;;
23990;SDS011;12205;50.600;4.608;2023-04-05T06:34:39;17.10;;;5.20;;
23990;SDS011;12205;50.600;4.608;2023-04-05T06:37:06;16.25;;;5.18;;
23990;SDS011;12205;50.600;4.608;2023-04-05T06:39:33;21.73;;;6.45;;
23990;SDS011;12205;50.600;4.608;2023-04-05T06:42:01;21.25;;;6.93;;
23990;SDS011;12205;50.600;4.608;2023-04-05T06:44:37;32.47;;;9.05;;
23990;SDS011;12205;50.600;4.608;2023-04-05T06:47:04;37.80;;;10.20;;
23990;SDS011;12205;50.600;4.608;2023-04-05T06:49:31;28.38;;;9.40;;
23990;SDS011;12205;50.600;4.608;2023-04-05T06:51:59;32.90;;;9.40;;
23990;SDS011;12205;50.600;4.608;2023-04-05T06:54:27;21.45;;;7.43;;
23990;SDS011;12205;50.600;4.608;2023-04-05T06:56:54;29.10;;;7.60;;
23990;SDS011;12205;50.600;4.608;2023-04-05T06:59:21;26.98;;;7.35;;
23990;SDS011;12205;50.600;4.608;2023-04-05T07:01:48;30.33;;;8.90;;
23990;SDS011;12205;50.600;4.608;2023-04-05T07:04:15;37.60;;;9.90;;
23990;SDS011;12205;50.600;4.608;2023-04-05T07:06:42;27.25;;;7.78;;
23990;SDS011;12205;50.600;4.608;2023-04-05T07:09:11;23.23;;;6.90;;
23990;SDS011;12205;50.600;4.608;2023-04-05T07:11:38;19.20;;;6.85;;
23990;SDS011;12205;50.600;4.608;2023-04-05T07:14:05;20.13;;;6.72;;
23990;SDS011;12205;50.600;4.608;2023-04-05T07:16:32;22.40;;;6.45;;
23990;SDS011;12205;50.600;4.608;2023-04-05T07:18:59;19.42;;;6.35;;
23990;SDS011;12205;50.600;4.608;2023-04-05T07:21:26;25.65;;;7.65;;
23990;SDS011;12205;50.600;4.608;2023-04-05T07:23:55;24.65;;;7.97;;
23990;SDS011;12205;50.600;4.608;2023-04-05T07:26:26;26.95;;;8.32;;
23990;SDS011;12205;50.600;4.608;2023-04-05T07:28:53;33.85;;;9.13;;
23990;SDS011;12205;50.600;4.608;2023-04-05T07:31:20;26.45;;;7.22;;
23990;SDS011;12205;50.600;4.608;2023-04-05T07:33:47;29.35;;;8.45;;
23990;SDS011;12205;50.600;4.608;2023-04-05T07:36:14;26.13;;;7.20;;
23990;SDS011;12205;50.600;4.608;2023-04-05T07:38:41;23.33;;;6.88;;
23990;SDS011;12205;50.600;4.608;2023-04-05T07:41:09;29.08;;;8.32;;
23990;SDS011;12205;50.600;4.608;2023-04-05T07:43:37;23.27;;;7.35;;
23990;SDS011;12205;50.600;4.608;2023-04-05T07:46:04;29.65;;;8.40;;
23990;SDS011;12205;50.600;4.608;2023-04-05T07:48:31;27.35;;;8.00;;
23990;SDS011;12205;50.600;4.608;2023-04-05T07:51:02;19.75;;;6.32;;
23990;SDS011;12205;50.600;4.608;2023-04-05T07:53:31;23.50;;;6.30;;
23990;SDS011;12205;50.600;4.608;2023-04-05T07:56:01;19.17;;;6.47;;
23990;SDS011;12205;50.600;4.608;2023-04-05T07:58:30;19.90;;;6.13;;
23990;SDS011;12205;50.600;4.608;2023-04-05T08:01:01;17.77;;;4.90;;
23990;SDS011;12205;50.600;4.608;2023-04-05T08:03:30;20.10;;;5.63;;
23990;SDS011;12205;50.600;4.608;2023-04-05T08:05:59;21.70;;;5.20;;
23990;SDS011;12205;50.600;4.608;2023-04-05T08:08:35;18.92;;;5.38;;
23990;SDS011;12205;50.600;4.608;2023-04-05T08:11:02;23.20;;;5.70;;
23990;SDS011;12205;50.600;4.608;2023-04-05T08:13:30;21.38;;;5.38;;
23990;SDS011;12205;50.600;4.608;2023-04-05T08:15:58;32.65;;;7.18;;
23990;SDS011;12205;50.600;4.608;2023-04-05T08:18:27;16.45;;;4.80;;
23990;SDS011;12205;50.600;4.608;2023-04-05T08:20:55;14.90;;;4.55;;
23990;SDS011;12205;50.600;4.608;2023-04-05T08:23:23;21.50;;;6.28;;
23990;SDS011;12205;50.600;4.608;2023-04-05T08:25:51;19.73;;;5.25;;
23990;SDS011;12205;50.600;4.608;2023-04-05T08:28:19;15.10;;;4.00;;
23990;SDS011;12205;50.600;4.608;2023-04-05T08:30:47;13.18;;;4.10;;
23990;SDS011;12205;50.600;4.608;2023-04-05T08:33:18;13.15;;;3.63;;
23990;SDS011;12205;50.600;4.608;2023-04-05T08:35:47;10.55;;;3.28;;
23990;SDS011;12205;50.600;4.608;2023-04-05T08:38:14;12.18;;;3.55;;
23990;SDS011;12205;50.600;4.608;2023-04-05T08:40:41;10.43;;;3.25;;
23990;SDS011;12205;50.600;4.608;2023-04-05T08:43:12;13.57;;;3.22;;
23990;SDS011;12205;50.600;4.608;2023-04-05T08:45:54;13.05;;;3.47;;
23990;SDS011;12205;50.600;4.608;2023-04-05T08:48:26;9.65;;;3.17;;
23990;SDS011;12205;50.600;4.608;2023-04-05T08:50:58;10.80;;;3.85;;
23990;SDS011;12205;50.600;4.608;2023-04-05T08:53:26;14.15;;;3.92;;
23990;SDS011;12205;50.600;4.608;2023-04-05T08:55:54;8.93;;;2.65;;
23990;SDS011;12205;50.600;4.608;2023-04-05T08:58:23;7.80;;;2.42;;
23990;SDS011;12205;50.600;4.608;2023-04-05T09:00:51;13.63;;;2.70;;
23990;SDS011;12205;50.600;4.608;2023-04-05T09:03:21;14.52;;;3.13;;
23990;SDS011;12205;50.600;4.608;2023-04-05T09:05:52;9.68;;;2.70;;
23990;SDS011;12205;50.600;4.608;2023-04-05T09:08:24;7.13;;;1.80;;
23990;SDS011;12205;50.600;4.608;2023-04-05T09:10:51;9.35;;;2.47;;
23990;SDS011;12205;50.600;4.608;2023-04-05T09:13:18;12.20;;;2.83;;
23990;SDS011;12205;50.600;4.608;2023-04-05T09:15:45;7.80;;;2.00;;
23990;SDS011;12205;50.600;4.608;2023-04-05T09:18:13;8.63;;;2.60;;
23990;SDS011;12205;50.600;4.608;2023-04-05T09:20:41;7.47;;;1.90;;
23990;SDS011;12205;50.600;4.608;2023-04-05T09:23:08;12.27;;;2.40;;
23990;SDS011;12205;50.600;4.608;2023-04-05T09:25:38;7.30;;;2.30;;
23990;SDS011;12205;50.600;4.608;2023-04-05T09:28:07;6.97;;;2.40;;
23990;SDS011;12205;50.600;4.608;2023-04-05T09:30:35;9.23;;;2.63;;
23990;SDS011;12205;50.600;4.608;2023-04-05T09:33:06;11.43;;;3.05;;
23990;SDS011;12205;50.600;4.608;2023-04-05T09:35:35;8.57;;;2.65;;
23990;SDS011;12205;50.600;4.608;2023-04-05T09:38:03;7.97;;;2.35;;
23990;SDS011;12205;50.600;4.608;2023-04-05T09:40:40;11.15;;;3.20;;
23990;SDS011;12205;50.600;4.608;2023-04-05T09:43:11;13.75;;;3.00;;
23990;SDS011;12205;50.600;4.608;2023-04-05T09:45:59;6.95;;;2.75;;
23990;SDS011;12205;50.600;4.608;2023-04-05T09:48:34;9.77;;;2.47;;
23990;SDS011;12205;50.600;4.608;2023-04-05T09:51:12;37.38;;;8.70;;
23990;SDS011;12205;50.600;4.608;2023-04-05T09:53:55;34.45;;;8.48;;
23990;SDS011;12205;50.600;4.608;2023-04-05T09:56:25;14.32;;;3.97;;
23990;SDS011;12205;50.600;4.608;2023-04-05T09:58:57;9.43;;;2.80;;
23990;SDS011;12205;50.600;4.608;2023-04-05T10:01:26;9.35;;;2.38;;
23990;SDS011;12205;50.600;4.608;2023-04-05T10:03:56;8.13;;;2.58;;
23990;SDS011;12205;50.600;4.608;2023-04-05T10:06:33;8.48;;;2.60;;
23990;SDS011;12205;50.600;4.608;2023-04-05T10:09:02;6.70;;;2.53;;
23990;SDS011;12205;50.600;4.608;2023-04-05T10:11:32;9.73;;;2.60;;
23990;SDS011;12205;50.600;4.608;2023-04-05T10:14:01;8.35;;;2.45;;
23990;SDS011;12205;50.600;4.608;2023-04-05T10:16:31;13.75;;;3.92;;
23990;SDS011;12205;50.600;4.608;2023-04-05T10:19:03;8.18;;;2.85;;
23990;SDS011;12205;50.600;4.608;2023-04-05T10:21:41;8.35;;;2.88;;
23990;SDS011;12205;50.600;4.608;2023-04-05T10:24:14;8.73;;;2.80;;
23990;SDS011;12205;50.600;4.608;2023-04-05T10:27:02;9.68;;;2.50;;
23990;SDS011;12205;50.600;4.608;2023-04-05T10:29:44;7.13;;;2.40;;
23990;SDS011;12205;50.600;4.608;2023-04-05T10:32:29;11.15;;;2.80;;
23990;SDS011;12205;50.600;4.608;2023-04-05T10:35:08;7.70;;;2.10;;
23990;SDS011;12205;50.600;4.608;2023-04-05T10:37:44;7.15;;;2.50;;
23990;SDS011;12205;50.600;4.608;2023-04-05T10:40:24;11.15;;;3.10;;
23990;SDS011;12205;50.600;4.608;2023-04-05T10:42:59;15.07;;;3.92;;
23990;SDS011;12205;50.600;4.608;2023-04-05T10:45:26;8.25;;;2.42;;
23990;SDS011;12205;50.600;4.608;2023-04-05T10:47:56;6.57;;;2.25;;
23990;SDS011;12205;50.600;4.608;2023-04-05T10:50:32;7.63;;;1.77;;
23990;SDS011;12205;50.600;4.608;2023-04-05T10:53:02;7.38;;;2.15;;
23990;SDS011;12205;50.600;4.608;2023-04-05T10:55:31;11.95;;;2.15;;
23990;SDS011;12205;50.600;4.608;2023-04-05T10:58:01;11.52;;;2.60;;
23990;SDS011;12205;50.600;4.608;2023-04-05T11:00:30;8.93;;;2.15;;
23990;SDS011;12205;50.600;4.608;2023-04-05T11:02:59;7.18;;;2.28;;
23990;SDS011;12205;50.600;4.608;2023-04-05T11:05:32;5.78;;;1.58;;
23990;SDS011;12205;50.600;4.608;2023-04-05T11:08:02;6.95;;;1.60;;
23990;SDS011;12205;50.600;4.608;2023-04-05T11:10:33;12.20;;;2.30;;
23990;SDS011;12205;50.600;4.608;2023-04-05T11:13:05;5.57;;;1.80;;
23990;SDS011;12205;50.600;4.608;2023-04-05T11:15:34;6.15;;;1.95;;
23990;SDS011;12205;50.600;4.608;2023-04-05T11:18:03;12.00;;;2.70;;
23990;SDS011;12205;50.600;4.608;2023-04-05T11:20:39;7.47;;;2.15;;
23990;SDS011;12205;50.600;4.608;2023-04-05T11:23:08;11.02;;;2.92;;
23990;SDS011;12205;50.600;4.608;2023-04-05T11:25:37;16.92;;;4.20;;
23990;SDS011;12205;50.600;4.608;2023-04-05T11:28:07;8.00;;;2.03;;
23990;SDS011;12205;50.600;4.608;2023-04-05T11:30:46;7.53;;;2.72;;
23990;SDS011;12205;50.600;4.608;2023-04-05T11:36:02;16.92;;;4.20;;
23990;SDS011;12205;50.600;4.608;2023-04-05T11:38:30;10.18;;;3.30;;
23990;SDS011;12205;50.600;4.608;2023-04-05T11:41:10;12.50;;;3.25;;
23990;SDS011;12205;50.600;4.608;2023-04-05T11:43:43;7.45;;;1.75;;
23990;SDS011;12205;50.600;4.608;2023-04-05T11:46:11;8.30;;;1.90;;
23990;SDS011;12205;50.600;4.608;2023-04-05T11:48:39;7.70;;;1.98;;
23990;SDS011;12205;50.600;4.608;2023-04-05T11:51:07;6.47;;;1.75;;
23990;SDS011;12205;50.600;4.608;2023-04-05T11:53:36;5.90;;;1.90;;
23990;SDS011;12205;50.600;4.608;2023-04-05T11:56:07;8.30;;;2.08;;
23990;SDS011;12205;50.600;4.608;2023-04-05T11:58:40;7.35;;;2.08;;
23990;SDS011;12205;50.600;4.608;2023-04-05T12:01:09;6.70;;;1.80;;
23990;SDS011;12205;50.600;4.608;2023-04-05T12:03:36;7.47;;;2.22;;
23990;SDS011;12205;50.600;4.608;2023-04-05T12:06:03;8.82;;;2.47;;
23990;SDS011;12205;50.600;4.608;2023-04-05T12:08:38;8.68;;;2.10;;
23990;SDS011;12205;50.600;4.608;2023-04-05T12:11:07;41.85;;;13.13;;
23990;SDS011;12205;50.600;4.608;2023-04-05T12:13:36;16.30;;;5.45;;
23990;SDS011;12205;50.600;4.608;2023-04-05T12:16:06;9.93;;;2.60;;
23990;SDS011;12205;50.600;4.608;2023-04-05T12:18:34;9.60;;;2.20;;
23990;SDS011;12205;50.600;4.608;2023-04-05T12:21:03;6.60;;;1.80;;
23990;SDS011;12205;50.600;4.608;2023-04-05T12:23:33;9.48;;;2.03;;
23990;SDS011;12205;50.600;4.608;2023-04-05T12:26:01;5.47;;;2.00;;
23990;SDS011;12205;50.600;4.608;2023-04-05T12:28:50;7.10;;;2.17;;
23990;SDS011;12205;50.600;4.608;2023-04-05T12:34:05;4.90;;;1.63;;
23990;SDS011;12205;50.600;4.608;2023-04-05T12:36:34;6.22;;;1.77;;
23990;SDS011;12205;50.600;4.608;2023-04-05T12:39:04;6.05;;;1.73;;
23990;SDS011;12205;50.600;4.608;2023-04-05T12:41:34;8.02;;;1.83;;
23990;SDS011;12205;50.600;4.608;2023-04-05T12:44:03;5.03;;;1.60;;
23990;SDS011;12205;50.600;4.608;2023-04-05T12:46:39;4.55;;;1.40;;
23990;SDS011;12205;50.600;4.608;2023-04-05T12:49:09;6.07;;;1.65;;
23990;SDS011;12205;50.600;4.608;2023-04-05T12:51:39;5.32;;;1.70;;
23990;SDS011;12205;50.600;4.608;2023-04-05T12:54:10;6.25;;;1.60;;
23990;SDS011;12205;50.600;4.608;2023-04-05T12:56:38;4.22;;;1.60;;
23990;SDS011;12205;50.600;4.608;2023-04-05T12:59:05;6.65;;;1.60;;
23990;SDS011;12205;50.600;4.608;2023-04-05T13:01:33;8.20;;;2.08;;
23990;SDS011;12205;50.600;4.608;2023-04-05T13:04:02;4.85;;;1.90;;
23990;SDS011;12205;50.600;4.608;2023-04-05T13:06:30;7.50;;;2.05;;
23990;SDS011;12205;50.600;4.608;2023-04-05T13:08:57;6.30;;;1.90;;
23990;SDS011;12205;50.600;4.608;2023-04-05T13:11:24;4.80;;;1.80;;
23990;SDS011;12205;50.600;4.608;2023-04-05T13:13:52;4.70;;;1.55;;
23990;SDS011;12205;50.600;4.608;2023-04-05T13:16:19;5.72;;;1.70;;
23990;SDS011;12205;50.600;4.608;2023-04-05T13:18:46;5.38;;;1.75;;
23990;SDS011;12205;50.600;4.608;2023-04-05T13:21:15;5.28;;;1.48;;
23990;SDS011;12205;50.600;4.608;2023-04-05T13:23:42;4.63;;;1.60;;
23990;SDS011;12205;50.600;4.608;2023-04-05T13:26:09;8.07;;;2.20;;
23990;SDS011;12205;50.600;4.608;2023-04-05T13:28:37;7.50;;;1.73;;
23990;SDS011;12205;50.600;4.608;2023-04-05T13:31:04;4.47;;;1.65;;
23990;SDS011;12205;50.600;4.608;2023-04-05T13:33:32;5.35;;;1.85;;
23990;SDS011;12205;50.600;4.608;2023-04-05T13:35:59;8.50;;;1.90;;
23990;SDS011;12205;50.600;4.608;2023-04-05T13:38:28;5.20;;;1.67;;
23990;SDS011;12205;50.600;4.608;2023-04-05T13:40:55;5.82;;;1.75;;
23990;SDS011;12205;50.600;4.608;2023-04-05T13:43:22;5.25;;;1.90;;
23990;SDS011;12205;50.600;4.608;2023-04-05T13:45:52;7.28;;;1.92;;
23990;SDS011;12205;50.600;4.608;2023-04-05T13:48:19;9.10;;;2.35;;
23990;SDS011;12205;50.600;4.608;2023-04-05T13:50:46;5.43;;;1.90;;
23990;SDS011;12205;50.600;4.608;2023-04-05T13:53:13;8.90;;;3.65;;
23990;SDS011;12205;50.600;4.608;2023-04-05T13:55:41;8.48;;;3.17;;
23990;SDS011;12205;50.600;4.608;2023-04-05T13:58:09;4.32;;;1.48;;
23990;SDS011;12205;50.600;4.608;2023-04-05T14:00:36;5.32;;;1.95;;
23990;SDS011;12205;50.600;4.608;2023-04-05T14:03:04;6.75;;;1.98;;
23990;SDS011;12205;50.600;4.608;2023-04-05T14:05:31;5.55;;;1.77;;
23990;SDS011;12205;50.600;4.608;2023-04-05T14:07:58;6.28;;;1.98;;
23990;SDS011;12205;50.600;4.608;2023-04-05T14:10:25;3.92;;;1.35;;
23990;SDS011;12205;50.600;4.608;2023-04-05T14:12:53;4.95;;;1.83;;
23990;SDS011;12205;50.600;4.608;2023-04-05T14:15:21;4.80;;;1.50;;
23990;SDS011;12205;50.600;4.608;2023-04-05T14:17:48;6.32;;;1.70;;
23990;SDS011;12205;50.600;4.608;2023-04-05T14:20:15;5.97;;;2.17;;
23990;SDS011;12205;50.600;4.608;2023-04-05T14:22:42;8.30;;;1.90;;
23990;SDS011;12205;50.600;4.608;2023-04-05T14:25:09;5.43;;;1.60;;
23990;SDS011;12205;50.600;4.608;2023-04-05T14:27:37;5.03;;;1.55;;
23990;SDS011;12205;50.600;4.608;2023-04-05T14:30:08;6.95;;;1.90;;
23990;SDS011;12205;50.600;4.608;2023-04-05T14:32:36;5.37;;;1.60;;
23990;SDS011;12205;50.600;4.608;2023-04-05T14:35:04;5.05;;;1.90;;
23990;SDS011;12205;50.600;4.608;2023-04-05T14:37:32;5.30;;;1.48;;
23990;SDS011;12205;50.600;4.608;2023-04-05T14:40:00;6.88;;;1.88;;
23990;SDS011;12205;50.600;4.608;2023-04-05T14:42:27;5.10;;;1.58;;
23990;SDS011;12205;50.600;4.608;2023-04-05T14:44:54;4.22;;;1.50;;
23990;SDS011;12205;50.600;4.608;2023-04-05T14:47:23;7.50;;;1.67;;
23990;SDS011;12205;50.600;4.608;2023-04-05T14:49:50;7.57;;;1.73;;
23990;SDS011;12205;50.600;4.608;2023-04-05T14:52:17;3.85;;;1.60;;
23990;SDS011;12205;50.600;4.608;2023-04-05T14:54:45;5.93;;;2.03;;
23990;SDS011;12205;50.600;4.608;2023-04-05T14:57:12;4.68;;;1.63;;
23990;SDS011;12205;50.600;4.608;2023-04-05T14:59:39;5.22;;;1.75;;
23990;SDS011;12205;50.600;4.608;2023-04-05T15:02:07;5.20;;;1.80;;
23990;SDS011;12205;50.600;4.608;2023-04-05T15:04:36;4.90;;;1.83;;
23990;SDS011;12205;50.600;4.608;2023-04-05T15:07:05;6.05;;;1.80;;
23990;SDS011;12205;50.600;4.608;2023-04-05T15:09:32;6.07;;;2.20;;
23990;SDS011;12205;50.600;4.608;2023-04-05T15:12:00;5.32;;;1.95;;